Terminal Aerodrome Forecast
Issued by NWS Shreveport, LA

Home | Current Version | Previous Version | Text Only | Print | Product List | Glossary On
Versions: 1 2 3 4 5 6 7 8 9 10 11 12 13 14 15
783
FTUS44 KSHV 272346
TAFTXK
TAF
KTXK 272346Z 2800/2824 19011G18KT 6SM HZ FEW045 BKN060
     FM280100 17010KT P6SM SCT060
     FM280800 17007KT P6SM VCSH BKN020
      TEMPO 2809/2812 5SM -TSRA BR OVC015CB
     FM281200 21012KT P6SM BKN035
     FM282100 24007KT P6SM VCTS OVC050CB=

USA.gov is the U.S. government's official web portal to all federal, state and local government web resources and services.